createdAt,value
2022-11-04T00:02:17.485Z,100.00
2022-11-04T00:04:46.314Z,100.00
2022-11-04T00:07:33.615Z,100.00
2022-11-04T00:10:02.445Z,100.00
2022-11-04T00:12:29.982Z,100.00
2022-11-04T00:15:19.193Z,100.00
2022-11-04T00:17:46.699Z,100.00
2022-11-04T00:20:33.463Z,100.00
2022-11-04T00:23:20.779Z,100.00
2022-11-04T00:26:07.033Z,100.00
2022-11-04T00:28:44.297Z,100.00
2022-11-04T00:31:31.001Z,100.00
2022-11-04T00:34:00.583Z,100.00
2022-11-04T00:36:29.400Z,100.00
2022-11-04T00:38:59.655Z,100.00
2022-11-04T00:41:29.131Z,100.00
2022-11-04T00:44:01.009Z,100.00
2022-11-04T00:46:32.704Z,100.00
2022-11-04T00:49:01.788Z,100.00
2022-11-04T00:51:30.944Z,100.00
2022-11-04T00:54:01.029Z,100.00
2022-11-04T00:56:29.887Z,100.00
2022-11-04T00:59:00.916Z,100.00
2022-11-04T01:01:29.815Z,100.00
2022-11-04T01:03:58.736Z,100.00
2022-11-04T01:06:28.481Z,100.00
2022-11-04T01:08:58.850Z,100.00
2022-11-04T01:11:31.410Z,100.00
2022-11-04T01:14:00.339Z,100.00
2022-11-04T01:16:29.838Z,100.00
2022-11-04T01:18:59.409Z,100.00
2022-11-04T01:21:28.412Z,100.00
2022-11-04T01:23:56.964Z,100.00
2022-11-04T01:26:29.336Z,100.00
2022-11-04T01:29:00.173Z,100.00
2022-11-04T01:31:31.921Z,100.00
2022-11-04T01:34:01.088Z,99.73
2022-11-04T01:36:30.113Z,99.81
2022-11-04T01:38:58.877Z,99.97
2022-11-04T01:41:32.279Z,100.00
2022-11-04T01:44:03.278Z,100.00
2022-11-04T01:46:48.499Z,100.00
2022-11-04T01:49:28.619Z,99.87
2022-11-04T01:52:06.262Z,100.00
2022-11-04T01:54:38.172Z,100.00
2022-11-04T01:57:15.361Z,100.00
2022-11-04T01:59:44.228Z,100.00
2022-11-04T02:02:13.249Z,100.00
2022-11-04T02:04:44.147Z,100.00
2022-11-04T02:07:13.845Z,100.00
2022-11-04T02:09:45.137Z,100.00
2022-11-04T02:12:34.357Z,100.00
2022-11-04T02:15:03.811Z,99.15
2022-11-04T02:17:55.770Z,100.00
2022-11-04T02:20:53.268Z,100.00
2022-11-04T02:24:12.216Z,99.70
2022-11-04T02:27:31.280Z,100.00
2022-11-04T02:30:10.897Z,99.93
2022-11-04T02:33:10.348Z,99.66
2022-11-04T02:35:55.389Z,99.60
2022-11-04T02:38:39.168Z,100.00
2022-11-04T02:41:22.443Z,100.00
2022-11-04T02:44:09.057Z,99.88
2022-11-04T02:46:48.129Z,99.83
2022-11-04T02:49:23.718Z,99.48
2022-11-04T02:52:00.290Z,99.84
2022-11-04T02:54:37.706Z,99.20
2022-11-04T02:57:12.559Z,99.06
2022-11-04T02:59:47.633Z,99.51
2022-11-04T03:02:26.885Z,99.40
2022-11-04T03:04:59.146Z,99.05
2022-11-04T03:07:34.316Z,99.68
2022-11-04T03:10:09.236Z,98.85
2022-11-04T03:12:48.781Z,98.71
2022-11-04T03:15:25.606Z,98.50
2022-11-04T03:18:08.792Z,98.76
2022-11-04T03:20:41.920Z,98.54
2022-11-04T03:23:12.547Z,98.36
2022-11-04T03:25:47.390Z,97.79
2022-11-04T03:28:36.345Z,98.21
2022-11-04T03:31:07.985Z,98.60
2022-11-04T03:33:49.781Z,97.99
2022-11-04T03:36:20.123Z,98.16
2022-11-04T03:38:49.130Z,97.45
2022-11-04T03:41:29.851Z,97.07
2022-11-04T03:43:58.783Z,97.35
2022-11-04T03:46:27.750Z,96.99
2022-11-04T03:49:00.130Z,97.19
2022-11-04T03:51:28.696Z,96.91
2022-11-04T03:53:58.923Z,97.90
2022-11-04T03:56:57.236Z,99.03
2022-11-04T03:59:57.438Z,99.50
2022-11-04T04:02:40.738Z,100.00
2022-11-04T04:05:20.646Z,99.68
2022-11-04T04:07:57.542Z,99.54
2022-11-04T04:10:40.865Z,98.83
2022-11-04T04:13:30.012Z,98.77
2022-11-04T04:16:06.243Z,98.36
2022-11-04T04:18:43.446Z,98.76
2022-11-04T04:21:21.452Z,96.78
2022-11-04T04:24:12.201Z,95.49
2022-11-04T04:27:01.106Z,96.53
2022-11-04T04:29:31.684Z,96.21
2022-11-04T04:32:03.049Z,96.37
2022-11-04T04:34:34.417Z,96.20
2022-11-04T04:37:10.167Z,95.32
2022-11-04T04:40:01.754Z,96.44
2022-11-04T04:42:51.714Z,94.48
2022-11-04T04:45:28.403Z,94.40
2022-11-04T04:47:58.731Z,94.82
2022-11-04T04:50:34.990Z,95.40
2022-11-04T04:53:05.197Z,95.99
2022-11-04T04:55:38.839Z,94.88
2022-11-04T04:58:10.542Z,95.61
2022-11-04T05:00:39.103Z,94.27
2022-11-04T05:03:08.356Z,95.01
2022-11-04T05:05:37.060Z,95.17
2022-11-04T05:08:09.067Z,95.53
2022-11-04T05:10:37.863Z,95.47
2022-11-04T05:13:24.402Z,94.55
2022-11-04T05:15:53.182Z,95.21
2022-11-04T05:18:22.334Z,94.16
2022-11-04T05:20:50.919Z,94.59
2022-11-04T05:23:21.199Z,94.73
2022-11-04T05:25:49.658Z,94.00
2022-11-04T05:28:18.427Z,94.00
2022-11-04T05:30:46.948Z,94.44
2022-11-04T05:33:15.840Z,94.47
2022-11-04T05:35:44.421Z,94.61
2022-11-04T05:38:13.221Z,93.45
2022-11-04T05:40:43.084Z,93.63
2022-11-04T05:43:12.780Z,93.56
2022-11-04T05:45:41.347Z,92.51
2022-11-04T05:48:10.492Z,92.55
2022-11-04T05:50:38.993Z,92.22
2022-11-04T05:53:08.209Z,92.25
2022-11-04T05:55:37.104Z,92.39
2022-11-04T05:58:07.459Z,92.28
2022-11-04T06:00:36.216Z,91.72
2022-11-04T06:03:05.326Z,92.03
2022-11-04T06:05:34.014Z,91.78
2022-11-04T06:08:02.815Z,91.93
2022-11-04T06:10:31.792Z,92.03
2022-11-04T06:13:00.578Z,91.68
2022-11-04T06:15:30.496Z,92.29
2022-11-04T06:17:59.437Z,92.39
2022-11-04T06:20:28.003Z,91.65
2022-11-04T06:22:56.959Z,91.24
2022-11-04T06:25:25.517Z,91.26
2022-11-04T06:27:54.340Z,90.51
2022-11-04T06:30:23.734Z,91.04
2022-11-04T06:32:57.047Z,91.85
2022-11-04T06:35:25.613Z,91.02
2022-11-04T06:37:56.384Z,90.92
2022-11-04T06:40:25.400Z,90.84
2022-11-04T06:42:54.177Z,90.89
2022-11-04T06:45:22.696Z,90.81
2022-11-04T06:47:52.835Z,90.95
2022-11-04T06:50:21.565Z,90.14
2022-11-04T06:52:50.372Z,91.16
2022-11-04T06:55:18.910Z,90.73
2022-11-04T06:57:47.708Z,90.30
2022-11-04T07:00:17.257Z,89.81
2022-11-04T07:02:46.234Z,89.63
2022-11-04T07:05:16.322Z,90.74
2022-11-04T07:07:45.160Z,90.66
2022-11-04T07:10:13.758Z,89.32
2022-11-04T07:12:42.658Z,89.70
2022-11-04T07:15:12.353Z,89.31
2022-11-04T07:17:41.177Z,89.71
2022-11-04T07:20:13.211Z,89.79
2022-11-04T07:22:43.423Z,89.98
2022-11-04T07:25:12.048Z,89.16
2022-11-04T07:27:41.056Z,89.79
2022-11-04T07:30:11.331Z,89.08
2022-11-04T07:32:40.167Z,88.97
2022-11-04T07:35:09.810Z,89.27
2022-11-04T07:37:38.765Z,88.41
2022-11-04T07:40:10.655Z,88.15
2022-11-04T07:42:39.565Z,88.43
2022-11-04T07:45:11.159Z,88.61
2022-11-04T07:47:40.020Z,87.28
2022-11-04T07:50:11.230Z,87.31
2022-11-04T07:52:40.585Z,87.86
2022-11-04T07:55:13.938Z,88.21
2022-11-04T07:57:42.761Z,87.72
2022-11-04T08:00:13.014Z,87.63
2022-11-04T08:02:42.156Z,87.70
2022-11-04T08:05:11.048Z,88.34
2022-11-04T08:07:40.275Z,88.42
2022-11-04T08:10:11.339Z,89.02
2022-11-04T08:12:40.278Z,88.51
2022-11-04T08:15:09.946Z,87.55
2022-11-04T08:17:38.746Z,88.01
2022-11-04T08:20:09.722Z,88.79
2022-11-04T08:22:39.178Z,88.64
2022-11-04T08:25:08.651Z,87.57
2022-11-04T08:27:38.875Z,87.55
2022-11-04T08:30:09.348Z,87.39
2022-11-04T08:32:38.228Z,87.32
2022-11-04T08:35:07.887Z,87.14
2022-11-04T08:37:36.938Z,87.07
2022-11-04T08:40:06.926Z,88.73
2022-11-04T08:42:35.807Z,90.28
2022-11-04T08:45:07.014Z,90.18
2022-11-04T08:47:35.952Z,90.75
2022-11-04T08:50:04.648Z,91.84
2022-11-04T08:52:33.477Z,90.50
2022-11-04T08:55:02.062Z,89.58
2022-11-04T08:57:31.734Z,89.40
2022-11-04T09:00:00.640Z,89.70
2022-11-04T09:02:30.865Z,89.27
2022-11-04T09:05:02.028Z,90.61
2022-11-04T09:07:30.872Z,91.03
2022-11-04T09:09:59.418Z,88.88
2022-11-04T09:12:28.320Z,88.56
2022-11-04T09:14:56.880Z,89.40
2022-11-04T09:17:26.108Z,90.61
2022-11-04T09:19:56.012Z,92.81
2022-11-04T09:22:24.838Z,91.45
2022-11-04T09:24:53.753Z,91.90
2022-11-04T09:27:22.522Z,90.87
2022-11-04T09:29:51.050Z,88.37
2022-11-04T09:32:19.896Z,88.28
2022-11-04T09:34:48.549Z,88.74
2022-11-04T09:37:18.718Z,87.48
2022-11-04T09:39:53.602Z,86.25
2022-11-04T09:42:49.942Z,86.33
2022-11-04T09:45:24.289Z,84.63
2022-11-04T09:47:59.902Z,83.42
2022-11-04T09:50:32.625Z,83.26
2022-11-04T09:53:13.926Z,82.55
2022-11-04T09:55:53.787Z,83.13
2022-11-04T09:58:22.879Z,82.19
2022-11-04T10:01:07.525Z,81.87
2022-11-04T10:03:56.783Z,82.73
2022-11-04T10:06:41.902Z,80.91
2022-11-04T10:09:34.607Z,78.63
2022-11-04T10:12:22.067Z,79.96
2022-11-04T10:15:19.297Z,78.46
2022-11-04T10:18:07.797Z,78.93
2022-11-04T10:20:56.555Z,76.34
2022-11-04T10:23:34.422Z,76.22
2022-11-04T10:26:19.306Z,75.93
2022-11-04T10:28:56.381Z,75.86
2022-11-04T10:31:26.326Z,75.72
2022-11-04T10:34:04.300Z,75.80
2022-11-04T10:36:34.693Z,75.48
2022-11-04T10:39:14.765Z,76.56
2022-11-04T10:41:46.024Z,75.95
2022-11-04T10:44:23.560Z,76.94
2022-11-04T10:47:05.519Z,76.90
2022-11-04T10:50:22.348Z,77.82
2022-11-04T10:52:45.160Z,76.13
2022-11-04T10:55:36.846Z,75.56
2022-11-04T10:58:20.984Z,74.52
2022-11-04T11:00:50.099Z,75.15
2022-11-04T11:03:35.250Z,74.85
2022-11-04T11:06:20.659Z,73.65
2022-11-04T11:08:50.064Z,74.00
2022-11-04T11:11:39.276Z,74.78
2022-11-04T11:14:20.763Z,73.54
2022-11-04T11:16:49.411Z,71.80
2022-11-04T11:19:21.775Z,72.14
2022-11-04T11:21:53.307Z,71.61
2022-11-04T11:24:24.424Z,71.38
2022-11-04T11:26:56.096Z,71.70
2022-11-04T11:29:30.347Z,71.01
2022-11-04T11:32:01.736Z,70.38
2022-11-04T11:34:38.336Z,70.45
2022-11-04T11:37:24.345Z,68.22
2022-11-04T11:39:53.197Z,69.31
2022-11-04T11:42:21.838Z,69.12
2022-11-04T11:44:55.725Z,69.74
2022-11-04T11:47:38.306Z,69.43
2022-11-04T11:50:17.088Z,70.55
2022-11-04T11:52:46.934Z,68.93
2022-11-04T11:55:21.262Z,69.86
2022-11-04T12:01:05.271Z,69.17
2022-11-04T12:09:46.856Z,68.74
2022-11-04T12:12:38.946Z,69.57
2022-11-04T12:15:42.891Z,69.21
2022-11-04T12:18:50.425Z,69.61
2022-11-04T12:21:33.231Z,69.49
2022-11-04T12:24:18.306Z,69.34
2022-11-04T12:27:00.275Z,69.98
2022-11-04T12:29:55.592Z,70.08
2022-11-04T12:32:38.207Z,68.58
2022-11-04T12:35:30.898Z,69.35
2022-11-04T12:38:23.600Z,69.84
2022-11-04T12:41:32.157Z,69.03
2022-11-04T12:44:06.258Z,67.63
2022-11-04T12:46:48.541Z,67.16
2022-11-04T12:50:07.796Z,67.21
2022-11-04T12:53:15.900Z,68.37
2022-11-04T12:56:00.901Z,67.65
2022-11-04T12:58:50.275Z,68.31
2022-11-04T13:01:26.637Z,69.04
2022-11-04T13:04:05.751Z,68.64
2022-11-04T13:06:41.574Z,68.89
2022-11-04T13:09:18.550Z,69.39
2022-11-04T13:11:55.788Z,69.13
2022-11-04T13:14:30.292Z,68.74
2022-11-04T13:17:05.117Z,69.11
2022-11-04T13:19:44.617Z,68.75
2022-11-04T13:22:20.084Z,68.60
2022-11-04T13:24:56.692Z,70.29
2022-11-04T13:27:33.277Z,69.10
2022-11-04T13:30:11.343Z,68.70
2022-11-04T13:32:51.693Z,69.34
2022-11-04T13:35:31.830Z,69.15
2022-11-04T13:38:06.749Z,69.66
2022-11-04T13:40:57.852Z,69.22
2022-11-04T13:43:39.843Z,69.55
2022-11-04T13:46:24.676Z,69.42
2022-11-04T13:49:04.109Z,70.33
2022-11-04T13:51:40.643Z,69.79
2022-11-04T13:54:28.851Z,69.76
2022-11-04T13:57:14.228Z,70.52
2022-11-04T13:59:45.028Z,71.17
2022-11-04T14:02:43.738Z,70.32
2022-11-04T14:06:07.280Z,69.39
2022-11-04T14:08:36.411Z,70.12
2022-11-04T14:11:13.872Z,69.64
2022-11-04T14:14:04.123Z,68.96
2022-11-04T14:16:46.941Z,68.89
2022-11-04T14:19:58.911Z,69.10
2022-11-04T14:22:49.661Z,69.89
2022-11-04T14:25:40.026Z,69.36
2022-11-04T14:28:30.503Z,70.12
2022-11-04T14:31:03.742Z,70.47
2022-11-04T14:33:40.703Z,72.05
2022-11-04T14:36:26.277Z,71.04
2022-11-04T14:38:59.665Z,71.76
2022-11-04T14:41:58.049Z,71.48
2022-11-04T14:44:34.511Z,72.45
2022-11-04T14:47:18.737Z,72.93
2022-11-04T14:49:51.839Z,71.11
2022-11-04T14:52:28.955Z,72.01
2022-11-04T14:55:05.380Z,71.84
2022-11-04T14:57:41.035Z,72.58
2022-11-04T15:00:36.496Z,72.08
2022-11-04T15:03:52.070Z,73.82
2022-11-04T15:06:09.208Z,72.83
2022-11-04T15:08:44.803Z,74.17
2022-11-04T15:11:17.899Z,73.75
2022-11-04T15:13:50.448Z,74.54
2022-11-04T15:16:22.867Z,73.18
2022-11-04T15:18:55.926Z,73.43
2022-11-04T15:21:24.957Z,75.17
2022-11-04T15:23:56.377Z,75.10
2022-11-04T15:26:30.602Z,75.14
2022-11-04T15:29:03.107Z,75.85
2022-11-04T15:31:33.792Z,75.36
2022-11-04T15:34:14.241Z,75.46
2022-11-04T15:36:45.215Z,75.63
2022-11-04T15:39:18.622Z,75.79
2022-11-04T15:42:06.403Z,76.31
2022-11-04T15:44:38.268Z,76.30
2022-11-04T15:47:24.995Z,76.43
2022-11-04T15:50:05.219Z,75.91
2022-11-04T15:52:34.042Z,76.80
2022-11-04T15:55:03.443Z,77.31
2022-11-04T15:57:39.000Z,76.84
2022-11-04T16:00:22.133Z,77.11
2022-11-04T16:02:53.781Z,77.48
2022-11-04T16:05:28.754Z,78.89
2022-11-04T16:08:17.600Z,78.01
2022-11-04T16:10:46.771Z,77.72
2022-11-04T16:13:26.492Z,77.92
2022-11-04T16:16:15.185Z,78.12
2022-11-04T16:18:50.146Z,78.70
2022-11-04T16:21:28.918Z,79.03
2022-11-04T16:24:03.577Z,79.93
2022-11-04T16:26:39.584Z,79.21
2022-11-04T16:29:14.494Z,79.08
2022-11-04T16:31:43.676Z,79.89
2022-11-04T16:34:14.569Z,80.00
2022-11-04T16:36:44.712Z,80.60
2022-11-04T16:39:13.276Z,80.72
2022-11-04T16:41:42.938Z,80.65
2022-11-04T16:44:22.109Z,81.59
2022-11-04T16:46:50.974Z,80.43
2022-11-04T16:49:22.854Z,81.41
2022-11-04T16:51:56.976Z,81.43
2022-11-04T16:54:26.418Z,81.40
2022-11-04T16:56:56.298Z,81.78
2022-11-04T16:59:25.204Z,81.54
2022-11-04T17:01:54.109Z,82.17
2022-11-04T17:04:22.756Z,82.14
2022-11-04T17:06:52.965Z,82.20
2022-11-04T17:09:24.255Z,82.34
2022-11-04T17:11:53.154Z,82.56
2022-11-04T17:14:21.681Z,82.52
2022-11-04T17:16:50.514Z,82.64
2022-11-04T17:19:19.247Z,82.63
2022-11-04T17:21:48.450Z,82.33
2022-11-04T17:24:18.355Z,82.33
2022-11-04T17:26:47.241Z,82.94
2022-11-04T17:29:17.510Z,82.34
2022-11-04T17:31:46.530Z,82.62
2022-11-04T17:34:15.056Z,82.83
2022-11-04T17:36:43.952Z,83.28
2022-11-04T17:39:12.582Z,83.14
2022-11-04T17:42:00.125Z,82.95
2022-11-04T17:44:28.625Z,83.56
2022-11-04T17:47:00.379Z,83.40
2022-11-04T17:49:29.506Z,83.19
2022-11-04T17:52:01.156Z,83.46
2022-11-04T17:54:31.803Z,83.87
2022-11-04T17:57:02.349Z,83.26
2022-11-04T17:59:35.451Z,82.85
2022-11-04T18:02:06.008Z,83.49
2022-11-04T18:04:35.203Z,83.47
2022-11-04T18:07:04.626Z,83.26
2022-11-04T18:09:36.258Z,83.71
2022-11-04T18:12:24.886Z,83.82
2022-11-04T18:14:53.959Z,83.82
2022-11-04T18:17:24.881Z,83.72
2022-11-04T18:19:53.490Z,83.60
2022-11-04T18:22:22.527Z,83.63
2022-11-04T18:24:51.123Z,84.11
2022-11-04T18:27:21.327Z,84.36
2022-11-04T18:29:49.855Z,84.37
2022-11-04T18:32:18.734Z,84.39
2022-11-04T18:34:47.352Z,84.11
2022-11-04T18:37:16.360Z,83.82
2022-11-04T18:39:45.043Z,84.66
2022-11-04T18:42:13.855Z,83.72
2022-11-04T18:44:43.757Z,83.81
2022-11-04T18:47:14.063Z,83.56
2022-11-04T18:49:42.801Z,84.12
2022-11-04T18:52:11.655Z,83.97
2022-11-04T18:54:40.490Z,84.35
2022-11-04T18:57:10.283Z,84.58
2022-11-04T18:59:39.426Z,84.80
2022-11-04T19:02:19.009Z,84.69
2022-11-04T19:04:47.719Z,84.87
2022-11-04T19:07:16.857Z,84.97
2022-11-04T19:09:47.498Z,84.87
2022-11-04T19:12:34.933Z,84.40
2022-11-04T19:15:04.978Z,85.06
2022-11-04T19:17:37.578Z,84.71
2022-11-04T19:20:12.153Z,85.36
2022-11-04T19:22:41.872Z,85.23
2022-11-04T19:25:11.829Z,85.49
2022-11-04T19:27:40.745Z,85.55
2022-11-04T19:30:10.709Z,85.53
2022-11-04T19:32:40.918Z,86.02
2022-11-04T19:35:09.751Z,86.11
2022-11-04T19:37:38.744Z,86.05
2022-11-04T19:40:10.954Z,86.25
2022-11-04T19:42:57.558Z,86.44
2022-11-04T19:45:26.100Z,86.37
2022-11-04T19:47:56.254Z,86.21
2022-11-04T19:50:24.864Z,86.82
2022-11-04T19:52:53.723Z,86.47
2022-11-04T19:55:22.287Z,86.78
2022-11-04T19:57:51.150Z,86.63
2022-11-04T20:00:20.155Z,87.03
2022-11-04T20:02:49.367Z,86.84
2022-11-04T20:05:19.332Z,86.58
2022-11-04T20:07:48.261Z,86.84
2022-11-04T20:10:16.854Z,86.81
2022-11-04T20:13:03.239Z,86.62
2022-11-04T20:15:31.807Z,86.62
2022-11-04T20:18:00.772Z,86.99
2022-11-04T20:20:31.371Z,86.37
2022-11-04T20:23:00.173Z,86.40
2022-11-04T20:25:28.752Z,87.07
2022-11-04T20:27:57.608Z,86.58
2022-11-04T20:30:26.181Z,86.74
2022-11-04T20:32:55.083Z,86.67
2022-11-04T20:35:23.671Z,87.15
2022-11-04T20:37:53.853Z,86.75
2022-11-04T20:40:22.523Z,86.70
2022-11-04T20:42:51.652Z,86.50
2022-11-04T20:45:21.240Z,86.83
2022-11-04T20:47:50.127Z,87.19
2022-11-04T20:50:18.780Z,87.24
2022-11-04T20:52:47.594Z,87.33
2022-11-04T20:55:17.687Z,88.15
2022-11-04T20:57:46.625Z,88.18
2022-11-04T21:00:16.164Z,88.09
2022-11-04T21:02:45.090Z,87.53
2022-11-04T21:05:15.049Z,87.85
2022-11-04T21:07:43.955Z,87.64
2022-11-04T21:10:12.572Z,88.07
2022-11-04T21:12:42.721Z,87.69
2022-11-04T21:15:32.407Z,87.59
2022-11-04T21:18:01.219Z,87.91
2022-11-04T21:20:29.747Z,87.24
2022-11-04T21:22:58.597Z,87.37
2022-11-04T21:25:27.163Z,86.34
2022-11-04T21:27:57.377Z,87.05
2022-11-04T21:30:31.936Z,86.45
2022-11-04T21:33:01.958Z,87.06
2022-11-04T21:35:31.154Z,86.31
2022-11-04T21:37:59.931Z,86.92
2022-11-04T21:40:28.536Z,86.99
2022-11-04T21:42:59.730Z,86.22
2022-11-04T21:45:28.719Z,86.69
2022-11-04T21:47:57.502Z,86.29
2022-11-04T21:50:26.060Z,87.07
2022-11-04T21:52:54.945Z,87.19
2022-11-04T21:55:23.505Z,86.14
2022-11-04T21:57:52.392Z,86.54
2022-11-04T22:00:22.642Z,85.95
2022-11-04T22:02:54.472Z,85.80
2022-11-04T22:05:23.115Z,86.74
2022-11-04T22:08:09.764Z,86.63
2022-11-04T22:10:38.334Z,86.11
2022-11-04T22:13:07.193Z,86.24
2022-11-04T22:15:54.576Z,86.12
2022-11-04T22:18:23.395Z,85.85
2022-11-04T22:20:52.058Z,85.94
2022-11-04T22:23:20.945Z,86.01
2022-11-04T22:25:50.458Z,85.53
2022-11-04T22:28:20.876Z,85.72
2022-11-04T22:30:50.754Z,85.61
2022-11-04T22:33:19.637Z,86.59
2022-11-04T22:35:48.598Z,86.27
2022-11-04T22:38:17.482Z,86.69
2022-11-04T22:40:46.219Z,86.88
2022-11-04T22:43:15.063Z,86.58
2022-11-04T22:45:43.573Z,86.60
2022-11-04T22:48:13.736Z,86.01
2022-11-04T22:50:42.261Z,86.54
2022-11-04T22:53:11.412Z,86.60
2022-11-04T22:55:40.147Z,86.66
2022-11-04T22:58:08.928Z,86.61
2022-11-04T23:00:37.510Z,85.95
2022-11-04T23:03:06.445Z,85.41
2022-11-04T23:05:36.579Z,85.82
2022-11-04T23:08:05.540Z,86.30
2022-11-04T23:10:51.492Z,86.05
2022-11-04T23:13:38.053Z,86.13
2022-11-04T23:16:24.255Z,86.23
2022-11-04T23:18:53.335Z,86.29
2022-11-04T23:21:42.839Z,86.94
2022-11-04T23:24:29.485Z,87.25
2022-11-04T23:26:58.412Z,87.43
2022-11-04T23:29:45.162Z,87.58
2022-11-04T23:32:13.693Z,87.65
2022-11-04T23:35:00.256Z,87.30
2022-11-04T23:37:30.107Z,87.79
2022-11-04T23:39:58.866Z,87.74
2022-11-04T23:42:27.353Z,87.11
2022-11-04T23:45:15.094Z,86.92
2022-11-04T23:48:03.520Z,87.22
2022-11-04T23:50:53.024Z,86.87
2022-11-04T23:53:40.816Z,87.06
2022-11-04T23:56:29.578Z,86.58
2022-11-04T23:59:21.145Z,86.05
